Stations météo

réclame
Mon MeteoGroup
Zinnwald-Georgenfeld, Allemagne (10582): Température de l'air & dewpoint: 07.12.2017 00:00:00 - 13.12.2017 00:00:00 (CET)Zinnwald-Georgenfeld, Allemagne (10582): Température de l'air 5cm & Température de l'air -5cm: 07.12.2017 00:00:00 - 13.12.2017 00:00:00 (CET)Zinnwald-Georgenfeld, Allemagne (10582): Température de l'air -20cm & Température de l'air -100cm: 07.12.2017 00:00:00 - 13.12.2017 00:00:00 (CET)Zinnwald-Georgenfeld, Allemagne (10582): Vitesse du vent & gusts: 07.12.2017 00:00:00 - 13.12.2017 00:00:00 (CET)Zinnwald-Georgenfeld, Allemagne (10582): Direction du vent: 07.12.2017 00:00:00 - 13.12.2017 00:00:00 (CET)Zinnwald-Georgenfeld, Allemagne (10582): visibility: 07.12.2017 00:00:00 - 13.12.2017 00:00:00 (CET)Zinnwald-Georgenfeld, Allemagne (10582): Ensoleillement: 07.12.2017 00:00:00 - 13.12.2017 00:00:00 (CET)Zinnwald-Georgenfeld, Allemagne (10582): Quantités de précipitations: 07.12.2017 00:00:00 - 13.12.2017 00:00:00 (CET)
Date & Time tt [°C] td [°C] tt 5cm [°C] tt -5cm [°C] tt -20cm [°C] tt -100cm [°C] ff [km/h] ff [knt] fx [km/h] fx [knt] dd vv [km] sd [min] rr [mm]
13.12.2017 00:00:00 -3,3 -5,2 -1,0 0,2 0,6 3,8 13 7 35 19 WSW 70 0 0,0
12.12.2017 23:00:00 -3,0 -4,8 -0,8 0,2 0,6 3,8 21 11 41 22 W 65 0 0,0
12.12.2017 22:00:00 -2,8 -4,7 -0,6 0,2 0,6 3,8 22 12 51 28 W 59 0 0,0
12.12.2017 21:00:00 -2,6 -4,6 -0,3 0,2 0,6 3,8 26 14 57 31 WNW 70 0 0,0
12.12.2017 20:00:00 -2,5 -4,9 -0,1 0,2 0,6 3,8 30 16 51 28 W 70 0 0,0
12.12.2017 19:00:00 -2,4 -5,5 0,0 0,2 0,6 3,9 29 16 50 27 W 70 0 0,0
12.12.2017 18:00:00 -2,2 -5,7 0,0 0,2 0,6 3,9 30 16 53 29 W 70 0 0,0
12.12.2017 17:00:00 -2,2 -5,8 0,0 0,2 0,6 3,9 32 18 60 33 W 70 0 0,0
12.12.2017 16:00:00 -1,8 -5,7 0,0 0,2 0,6 3,9 34 18 60 32 WSW 70 18 0,0
12.12.2017 15:00:00 -1,6 -5,9 0,0 0,2 0,6 3,9 32 17 64 35 W 53 25 0,0
12.12.2017 14:00:00 -1,4 -4,8 0,0 0,2 0,6 3,9 33 18 60 32 WSW 70 0 0,0
12.12.2017 13:00:00 -1,4 -4,9 0,0 0,2 0,6 3,9 38 21 68 37 W 70 1 0,0
12.12.2017 12:00:00 -1,3 -4,4 0,0 0,2 0,6 3,9 38 21 77 41 W 54 0 0,0
12.12.2017 11:00:00 -1,1 -3,8 0,0 0,2 0,6 3,9 40 22 79 43 WSW 70 0 0,1
12.12.2017 10:00:00 -0,3 -2,6 0,0 0,2 0,6 3,9 41 22 74 40 WSW 70 0 0,0
12.12.2017 09:00:00 0,8 -1,3 0,0 0,2 0,6 3,9 49 26 74 40 SW 70 0 0,1
12.12.2017 08:00:00 1,0 -0,1 0,0 0,2 0,6 3,9 41 22 67 36 SW 70 0 0,0
12.12.2017 07:00:00 0,8 0,8 -0,1 0,2 0,6 3,9 41 22 68 37 SSW 1,6 0 0,1
12.12.2017 06:00:00 1,0 1,0 -0,1 0,2 0,7 3,9 41 22 63 34 SSW 0,5 0 0,2
12.12.2017 05:00:00 1,1 1,1 -0,1 0,2 0,7 3,9 37 20 52 28 SSW 17 0 0,0
12.12.2017 04:00:00 0,8 0,8 -0,1 0,2 0,7 3,9 32 17 42 23 SSW 2,1 0 0,1
12.12.2017 03:00:00 2,1 1,5 -0,1 0,2 0,7 3,9 24 13 39 21 SSW 70 0 0,1
12.12.2017 02:00:00 2,5 1,9 -0,1 0,2 0,7 3,9 24 13 36 19 SW 70 0 0,1
12.12.2017 01:00:00 2,5 2,2 -0,1 0,2 0,7 3,9 26 14 34 18 SW 70 0 0,1
12.12.2017 00:00:00 1,7 1,7 -0,1 0,3 0,7 3,9 23 13 32 17 WSW 36 0 0,1
11.12.2017 23:00:00 1,2 1,2 -0,1 0,3 0,7 3,9 15 8 22 12 S 8 0 0,0
11.12.2017 22:00:00 1,1 1,1 -0,1 0,3 0,7 3,9 16 9 24 13 S 0,2 0 0,1
11.12.2017 21:00:00 1,1 1,1 -0,1 0,3 0,7 3,9 19 11 32 18 S 1,1 0 0,1
11.12.2017 20:00:00 1,0 1,0 -0,1 0,3 0,7 3,9 26 14 36 19 SSE 0,2 0 0,0
11.12.2017 19:00:00 0,2 0,2 -0,1 0,3 0,7 3,9 29 15 47 25 SSE 0,1 0 0,0
11.12.2017 18:00:00 0,0 0,0 -0,1 0,3 0,7 3,9 34 19 49 26 SSE 0,1 0 0,0
11.12.2017 17:00:00 -0,3 -0,3 -0,1 0,3 0,7 3,9 39 21 58 31 S 0,1 0 0,0
11.12.2017 16:00:00 -0,4 -0,4 -0,1 0,3 0,7 3,9 40 22 55 30 SSE 0,1 0 0,1
11.12.2017 15:00:00 -0,1 -0,1 -0,1 0,3 0,7 3,9 36 19 46 25 SSE 0,1 0 0,1
11.12.2017 14:00:00 0,3 0,3 -0,2 0,3 0,7 3,9 31 17 48 26 S 0,1 0 0,2
11.12.2017 13:00:00 1,1 1,1 -0,2 0,3 0,7 3,9 35 19 51 27 S 0,1 0 0,3
11.12.2017 12:00:00 0,5 0,5 -0,3 0,3 0,7 3,9 27 15 41 22 S 0,1 0 0,5
11.12.2017 11:00:00 0,5 0,5 -0,3 0,3 0,7 3,9 28 15 42 23 S 0,1 0 0,4
11.12.2017 10:00:00 0,3 0,3 -0,4 0,3 0,7 3,9 23 12 35 19 S 0,1 0 0,0
11.12.2017 09:00:00 0,2 0,2 -0,4 0,3 0,7 3,9 22 12 38 20 S 0,1 0 0,0
11.12.2017 08:00:00 0,3 0,3 -0,5 0,3 0,7 3,9 28 15 42 23 S 0,1 0 0,0
11.12.2017 07:00:00 0,5 0,5 -0,6 0,3 0,7 3,9 30 16 43 23 SSW 0,2 0 0,0
11.12.2017 06:00:00 0,6 0,6 -0,6 0,3 0,7 3,9 36 19 53 28 SSW 0,8 0 0,0
11.12.2017 05:00:00 0,2 0,2 -0,8 0,2 0,7 3,9 37 20 56 30 SSW 30 0 0,0
11.12.2017 04:00:00 0,0 0,0 -0,8 0,2 0,7 3,9 40 22 59 32 SSW 37 0 0,1
11.12.2017 03:00:00 -0,2 -0,2 -1,0 0,2 0,7 3,9 44 24 63 34 SSW 20 0 0,0
11.12.2017 02:00:00 -0,9 -0,9 -1,0 0,2 0,7 3,9 43 23 62 33 SSW 4,6 0 0,0
11.12.2017 01:00:00 -1,7 -1,7 -1,1 0,2 0,7 3,9 37 20 60 33 S 0,1 0 0,0
11.12.2017 00:00:00 -1,1 -1,1 -1,1 0,2 0,7 3,9 40 21 66 36 SSW 11 0 0,1
10.12.2017 23:00:00 -1,5 -1,5 -1,2 0,2 0,7 3,9 49 26 71 39 SSW 0,5 0 0,0
10.12.2017 22:00:00 -2,9 -3,0 -1,3 0,2 0,7 3,9 34 19 58 32 SSW 4,8 0 0,0
10.12.2017 21:00:00 -4,4 -4,7 -1,4 0,2 0,7 3,9 41 22 56 30 SSW 5 0 0,0
10.12.2017 20:00:00 -5,9 -6,3 -1,4 0,2 0,7 3,9 39 21 60 33 S 0,6 0 0,0
10.12.2017 19:00:00 -6,4 -6,9 -1,5 0,2 0,7 3,9 39 21 68 37 S 0,1 0 0,2
10.12.2017 18:00:00 -6,6 -7,2 -1,5 0,2 0,7 3,9 46 25 81 44 S 0,1 0 1,0
10.12.2017 17:00:00 -6,8 -7,4 -1,5 0,2 0,7 3,9 53 29 74 40 S 0,1 0 0,7
10.12.2017 16:00:00 -6,9 -8,1 -1,4 0,2 0,7 3,9 49 26 77 42 S 0,3 0 0,0
10.12.2017 15:00:00 -6,7 -8,4 -1,4 0,2 0,7 3,9 41 22 58 32 S 8 0 0,0
10.12.2017 14:00:00 -6,9 -7,8 -1,4 0,2 0,7 3,9 37 20 53 29 S 12 0 0,0
10.12.2017 13:00:00 -7,0 -7,6 -1,5 0,2 0,7 4,0 24 13 46 25 S 12 0 0,0
10.12.2017 12:00:00 -7,2 -7,8 -1,6 0,2 0,7 4,0 31 17 50 27 SSE 12 0 0,0
10.12.2017 11:00:00 -7,3 -8,1 -1,7 0,2 0,7 4,0 33 18 48 26 S 16 1 0,0
10.12.2017 10:00:00 -7,4 -8,1 -1,8 0,2 0,7 4,0 27 15 37 20 S 30 0 0,0
10.12.2017 09:00:00 -7,4 -7,9 -1,8 0,2 0,7 4,0 22 12 39 21 S 19 0 0,0
10.12.2017 08:00:00 -7,0 -7,5 -1,8 0,2 0,7 4,0 26 14 38 20 S 19 0 0,0
10.12.2017 07:00:00 -7,1 -7,5 -1,7 0,2 0,7 4,0 20 11 26 14 S 18 0 0,0
10.12.2017 06:00:00 -7,1 -8,2 -1,6 0,3 0,7 4,0 19 11 29 15 SSW 39 0 0,0
10.12.2017 05:00:00 -7,2 -9,0 -1,3 0,3 0,7 4,0 23 12 36 20 SSW 70 0 0,0
10.12.2017 04:00:00 -6,0 -8,0 -1,2 0,2 0,7 4,0 30 16 40 21 SW 66 0 0,0
10.12.2017 03:00:00 -5,8 -7,7 -1,1 0,2 0,7 4,0 24 13 46 25 WSW 61 0 0,0
10.12.2017 02:00:00 -5,6 -7,2 -1,1 0,2 0,7 4,0 27 15 53 29 WSW 12 0 0,0
10.12.2017 01:00:00 -5,4 -6,2 -1,1 0,2 0,7 4,0 24 13 46 25 WSW 29 0 0,0
10.12.2017 00:00:00 -5,2 -5,8 -1,1 0,2 0,7 4,0 26 14 44 24 W 28 0 0,0
09.12.2017 23:00:00 -4,9 -5,3 -1,1 0,2 0,7 4,0 23 12 40 22 W 20 0 0,1
09.12.2017 22:00:00 -4,8 -5,2 -1,0 0,2 0,7 4,0 24 13 39 21 WSW 15 0 0,0
09.12.2017 21:00:00 -4,8 -5,2 -1,0 0,2 0,7 4,0 24 13 42 23 WSW 25 0 0,0
09.12.2017 20:00:00 -4,8 -5,2 -1,0 0,2 0,7 4,0 23 13 49 26 W 15 0 0,0
09.12.2017 19:00:00 -4,8 -5,2 -1,0 0,2 0,7 4,0 29 15 50 27 W 16 0 0,0
09.12.2017 18:00:00 -4,8 -5,2 -1,0 0,2 0,7 4,0 28 15 55 30 WNW 14 0 0,0
09.12.2017 17:00:00 -4,9 -5,2 -1,0 0,2 0,7 4,0 21 11 53 29 W 10 0 0,0
09.12.2017 16:00:00 -5,0 -5,4 -1,0 0,2 0,7 4,0 26 14 57 31 W 9 0 0,4
09.12.2017 15:00:00 -4,9 -5,8 -1,0 0,2 0,7 4,0 31 17 55 30 W 3,1 0 0,3
09.12.2017 14:00:00 -4,6 -5,7 -1,0 0,2 0,7 4,0 31 17 50 27 W 2,7 0 0,1
09.12.2017 13:00:00 -4,4 -5,4 -1,1 0,2 0,7 4,0 31 17 49 26 WSW 6 0 0,3
09.12.2017 12:00:00 -4,4 -5,7 -1,1 0,2 0,7 4,0 27 15 48 26 WSW 4,7 13 0,0
09.12.2017 11:00:00 -4,0 -6,5 -1,3 0,2 0,7 4,0 25 14 49 26 W 33 28 0,0
09.12.2017 10:00:00 -4,5 -6,1 -1,4 0,2 0,7 4,0 25 13 49 27 W 30 39 0,0
09.12.2017 09:00:00 -4,7 -5,3 -1,6 0,2 0,7 4,0 23 12 45 24 W 29 0 0,1
09.12.2017 08:00:00 -4,6 -4,9 -1,8 0,2 0,7 4,0 20 11 35 19 W 2,9 0 0,4
09.12.2017 07:00:00 -5,2 -5,8 -2,0 0,2 0,7 4,0 21 12 - - WSW 6 0 0,4
09.12.2017 06:00:00 -5,4 -7,0 -1,9 0,2 0,7 4,0 23 12 31 17 SW 7 0 0,0
09.12.2017 05:00:00 -5,6 -7,3 -1,7 0,2 0,7 4,0 18 10 29 15 SSW 70 0 0,0
09.12.2017 04:00:00 -4,8 -6,5 -1,5 0,2 0,7 4,0 16 9 31 17 SSW 69 0 0,0
09.12.2017 03:00:00 -4,3 -5,7 -1,4 0,2 0,7 4,0 20 11 37 20 WSW 54 0 0,0
09.12.2017 02:00:00 -4,2 -5,7 -1,2 0,2 0,7 4,0 22 12 39 21 W 68 0 0,0
09.12.2017 01:00:00 -3,9 -4,8 -1,2 0,2 0,7 4,0 21 12 45 25 W 60 0 0,0
09.12.2017 00:00:00 -3,9 -4,5 -1,3 0,2 0,7 4,0 22 12 41 22 W 41 0 0,0
08.12.2017 23:00:00 -3,6 -4,2 -1,4 0,2 0,7 4,0 21 12 45 24 W 60 0 0,0
08.12.2017 22:00:00 -3,3 -3,7 -1,6 0,2 0,7 4,0 28 15 53 28 WNW 13 0 0,1
08.12.2017 21:00:00 -3,4 -3,8 -1,7 0,2 0,7 4,0 27 14 53 29 W 2,8 0 0,1
08.12.2017 20:00:00 -3,4 -5,0 -1,5 0,2 0,7 4,0 26 14 46 25 W 66 0 0,0
08.12.2017 19:00:00 -3,0 -5,2 -1,2 0,2 0,7 4,1 23 13 38 21 W 70 0 0,0
08.12.2017 18:00:00 -3,2 -5,4 -0,3 0,2 0,7 4,1 23 12 35 19 WSW 67 0 0,0
08.12.2017 17:00:00 -2,8 -4,8 0,0 0,2 0,7 4,1 23 12 39 21 WSW 70 0 0,0
08.12.2017 16:00:00 -2,2 -4,3 0,0 0,2 0,7 4,1 21 11 34 18 W 70 47 0,0
08.12.2017 15:00:00 -1,1 -2,7 0,0 0,2 0,7 4,1 19 10 36 19 W 40 33 0,0
08.12.2017 14:00:00 -0,6 -2,8 0,0 0,2 0,7 4,1 21 12 50 27 W 34 43 0,0
08.12.2017 13:00:00 0,2 -2,3 0,0 0,2 0,7 4,1 24 13 44 24 W 16 41 0,0
08.12.2017 12:00:00 -0,1 -1,8 0,0 0,2 0,7 4,1 28 15 46 25 W 19 51 0,0
08.12.2017 11:00:00 -0,2 -0,4 0,0 0,2 0,7 4,1 24 13 44 24 W 19 0 0,7
08.12.2017 10:00:00 0,3 0,2 -0,1 0,2 0,7 4,1 19 10 38 21 W 17 0 0,0
08.12.2017 09:00:00 0,7 0,7 -0,1 0,2 0,7 4,1 22 12 41 22 WSW 38 0 0,1
08.12.2017 08:00:00 0,6 0,6 -0,1 0,2 0,7 4,1 23 13 38 21 WSW 9 0 0,2
08.12.2017 07:00:00 0,7 0,7 -0,1 0,2 0,7 4,1 25 13 39 21 WSW 0,5 0 0,5
08.12.2017 06:00:00 0,7 0,7 -0,1 0,2 0,7 4,1 27 15 46 25 WSW 6 0 0,2
08.12.2017 05:00:00 0,7 0,7 -0,2 0,2 0,7 4,1 23 12 51 27 WSW 11 0 0,1
08.12.2017 04:00:00 0,9 0,7 -0,4 0,2 0,7 4,1 31 17 53 29 WSW 35 0 0,3
08.12.2017 03:00:00 1,1 0,7 -0,7 0,2 0,7 4,1 28 15 66 35 SW 8 0 0,3
08.12.2017 02:00:00 2,2 0,6 -1,2 0,2 0,7 4,1 36 19 56 30 SW 57 0 0,0
08.12.2017 01:00:00 0,9 -0,4 -1,6 0,2 0,7 4,1 33 18 44 24 SSW 30 0 0,0
08.12.2017 00:00:00 -2,4 -2,8 -1,9 0,2 0,7 4,1 24 13 42 23 S 7 0 0,0
07.12.2017 23:00:00 -2,8 -3,3 -1,9 0,2 0,7 4,1 28 15 37 20 S 8 0 0,0
07.12.2017 22:00:00 -2,4 -3,4 -2,0 0,2 0,7 4,1 29 16 37 20 S 17 0 0,0
07.12.2017 21:00:00 -3,1 -3,4 -1,9 0,2 0,7 4,1 27 15 34 19 S 3,5 0 0,0
07.12.2017 20:00:00 -1,1 -4,7 -1,8 0,2 0,7 4,1 20 11 41 22 SSW 46 0 0,0
07.12.2017 19:00:00 0,9 -5,4 -1,6 0,2 0,7 4,1 26 14 50 27 SW 70 0 0,0
07.12.2017 18:00:00 -0,8 -4,4 -1,3 0,2 0,7 4,1 19 11 39 21 SSW 41 0 0,0
07.12.2017 17:00:00 -2,3 -3,2 -0,8 0,2 0,7 4,1 29 16 35 19 S 11 0 0,0
07.12.2017 16:00:00 -1,8 -2,9 -0,3 0,2 0,6 4,1 23 12 35 19 S 12 54 0,0
07.12.2017 15:00:00 -0,8 -2,5 0,0 0,2 0,6 4,1 23 12 33 18 S 13 60 0,0
07.12.2017 14:00:00 -0,1 -2,1 0,0 0,2 0,6 4,1 27 14 36 19 S 11 60 0,0
07.12.2017 13:00:00 -0,1 -1,3 -0,1 0,2 0,6 4,1 29 15 37 20 SSW 12 53 0,0
07.12.2017 12:00:00 -2,0 -2,0 -0,3 0,2 0,6 4,1 23 12 33 18 S 0,3 1 0,0
07.12.2017 11:00:00 -2,3 -2,3 -0,3 0,2 0,6 4,1 25 13 34 18 S 0,1 2 0,0
07.12.2017 10:00:00 -2,7 -2,7 -0,1 0,2 0,6 4,1 16 8 21 11 S 0,1 7 0,0
07.12.2017 09:00:00 -2,9 -2,9 0,0 0,2 0,6 4,1 19 11 28 15 S 0,2 0 0,0
07.12.2017 08:00:00 -2,5 -2,5 0,0 0,2 0,6 4,1 24 13 34 18 S 0,2 0 0,0
07.12.2017 07:00:00 -1,9 -1,9 0,0 0,2 0,6 4,1 28 15 33 18 S 0,1 0 0,0
07.12.2017 06:00:00 -2,1 -2,3 0,0 0,2 0,6 4,2 22 12 29 16 SSW 11 0 0,0
07.12.2017 05:00:00 -1,2 -1,5 0,0 0,2 0,6 4,2 22 12 32 18 SW 15 0 0,0
07.12.2017 04:00:00 -0,9 -1,0 0,0 0,2 0,6 4,2 24 13 38 21 WSW 11 0 0,0
07.12.2017 03:00:00 -1,0 -1,0 0,0 0,2 0,6 4,2 21 11 41 22 WSW 7 0 0,0
07.12.2017 02:00:00 -1,1 -1,3 0,0 0,2 0,6 4,2 25 13 41 22 W 7 0 0,0
07.12.2017 01:00:00 -0,7 -1,0 0,0 0,2 0,6 4,2 23 12 41 22 W 11 0 0,0
07.12.2017 00:00:00 -0,5 -1,0 0,0 0,2 0,6 4,2 24 13 46 25 W 17 0 0,0

tt = Température de l'air
td = dewpoint
tt 5cm = Température de l'air 5cm
tt -5cm = Température de l'air -5cm
tt -20cm = Température de l'air -20cm
tt -100cm = Température de l'air -100cm
ff = Vitesse du vent
fx = gusts
dd = Direction du vent
vv = visibility
sd = Ensoleillement
rr = Quantités de précipitations

stations d'obs. à proximité